Wurtsboro, New York
Current Conditions -  °F | °C
As of 3:54 PM on Tuesday 25 Nov 2014 (Local Time) from KMGJ Reporting Station
Clear Clear  
Wind Chill: 51°   Ceiling: Unl
Heat Index: 51°   Visibility: 10mi
Dew Point: 27°   Wind: 8mph
Humidity: 39%   Direction: 260°W
Pressure: 29.97"   Gusts: NA
Location:  41.58°N, 74.49°W
Report Text: KMGJ 252054Z AUTO 26007KT 230V290 10SM CLR 11/M03 A2997 RMK AO2 SLP148 T01061028 53004 TSNO
Loading
Personal Weather Stations






























Interactive Weather Map New forecast layout! Learn more

10-Day Weather Forecast

Advertisements
Track Severe Weather on mobile